Time;durP1;ratioP1;P1;durP2;ratioP2;P2;SDS_P1;SDS_P2;PMS_P1;PMS_P2;Temp;Humidity;BMP_temperature;BMP_pressure;BME280_temperature;BME280_humidity;BME280_pressure;Samples;Min_cycle;Max_cycle;Signal;HPM_P1;HPM_P2
2022/05/22 00:00:12;;;;;;;2.72;2.40;;;;;;;;;;5017451;28;20175;-85
2022/05/22 00:02:38;;;;;;;4.93;2.10;;;;;;;;;;5034174;28;20022;-85
2022/05/22 00:05:04;;;;;;;3.97;2.45;;;;;;;;;;5034139;28;20384;-84
2022/05/22 00:07:30;;;;;;;4.55;2.33;;;;;;;;;;5015656;28;20021;-85
2022/05/22 00:09:56;;;;;;;3.40;2.47;;;;;;;;;;5015740;28;20070;-82
2022/05/22 00:12:22;;;;;;;8.68;5.05;;;;;;;;;;5016088;28;20025;-86
2022/05/22 00:14:48;;;;;;;10.15;5.47;;;;;;;;;;5014997;28;20407;-85
2022/05/22 00:17:14;;;;;;;10.18;4.20;;;;;;;;;;5033786;28;20151;-85
2022/05/22 00:19:40;;;;;;;3.45;2.30;;;;;;;;;;5040836;28;20030;-85
2022/05/22 00:22:07;;;;;;;8.40;2.60;;;;;;;;;;5032394;28;20041;-86
2022/05/22 00:24:33;;;;;;;5.53;2.30;;;;;;;;;;5039160;28;20044;-86
2022/05/22 00:27:00;;;;;;;5.75;2.40;;;;;;;;;;5020443;28;20120;-85
2022/05/22 00:29:26;;;;;;;4.60;2.92;;;;;;;;;;5019810;28;20025;-85
2022/05/22 00:31:52;;;;;;;4.07;2.60;;;;;;;;;;5037711;28;20029;-84
2022/05/22 00:34:19;;;;;;;4.15;2.40;;;;;;;;;;5037875;28;20075;-85
2022/05/22 00:36:45;;;;;;;4.55;2.70;;;;;;;;;;5019309;28;20032;-84
2022/05/22 00:39:11;;;;;;;4.35;2.60;;;;;;;;;;5037360;28;20045;-84
2022/05/22 00:41:37;;;;;;;3.63;2.40;;;;;;;;;;5037055;28;20026;-85
2022/05/22 00:44:04;;;;;;;10.23;2.63;;;;;;;;;;5036297;28;20041;-83
2022/05/22 00:46:30;;;;;;;6.88;2.70;;;;;;;;;;5036237;28;20051;-85
2022/05/22 00:49:01;;;;;;;8.13;2.30;;;;;;;;;;5036649;28;20117;-85
2022/05/22 00:51:35;;;;;;;8.23;2.75;;;;;;;;;;5036292;28;20033;-84
2022/05/22 00:54:05;;;;;;;8.20;2.80;;;;;;;;;;5036452;28;20099;-84
2022/05/22 00:56:46;;;;;;;5.55;2.95;;;;;;;;;;5018413;28;20072;-84
2022/05/22 00:59:15;;;;;;;4.07;3.05;;;;;;;;;;5035773;28;20029;-84
2022/05/22 01:01:42;;;;;;;9.43;3.20;;;;;;;;;;5021548;28;20041;-84
2022/05/22 01:04:10;;;;;;;4.18;2.70;;;;;;;;;;5037124;28;20075;-84
2022/05/22 01:06:36;;;;;;;3.65;2.60;;;;;;;;;;5046167;28;20022;-85
2022/05/22 01:09:02;;;;;;;5.72;2.67;;;;;;;;;;5035112;28;20435;-84
2022/05/22 01:11:29;;;;;;;7.57;2.50;;;;;;;;;;5034858;28;20502;-84
2022/05/22 01:13:56;;;;;;;3.65;2.50;;;;;;;;;;5034060;28;20468;-84
2022/05/22 01:16:25;;;;;;;3.33;2.35;;;;;;;;;;5034309;28;20037;-84
2022/05/22 01:18:52;;;;;;;5.05;2.60;;;;;;;;;;5034227;28;20371;-84
2022/05/22 01:21:23;;;;;;;4.53;2.22;;;;;;;;;;5016071;28;20479;-84
2022/05/22 01:23:50;;;;;;;5.80;2.63;;;;;;;;;;5033380;28;20483;-84
2022/05/22 01:26:16;;;;;;;4.82;2.35;;;;;;;;;;5033745;28;20021;-84
2022/05/22 01:28:42;;;;;;;5.82;2.83;;;;;;;;;;5033667;28;20361;-84
2022/05/22 01:31:09;;;;;;;4.95;2.40;;;;;;;;;;5016030;28;20578;-84
2022/05/22 01:33:35;;;;;;;4.22;2.58;;;;;;;;;;5034184;28;20104;-85
2022/05/22 01:36:02;;;;;;;3.75;2.55;;;;;;;;;;5016939;28;20025;-84
2022/05/22 01:38:28;;;;;;;7.70;2.42;;;;;;;;;;5037578;28;20026;-84
2022/05/22 01:40:54;;;;;;;5.80;2.22;;;;;;;;;;5037149;28;20025;-84
2022/05/22 01:43:20;;;;;;;4.25;2.70;;;;;;;;;;5037379;28;20315;-84
2022/05/22 01:45:46;;;;;;;3.78;2.80;;;;;;;;;;5018548;28;20056;-84
2022/05/22 01:48:13;;;;;;;5.80;2.35;;;;;;;;;;5037647;28;20025;-84
2022/05/22 01:50:39;;;;;;;4.22;2.40;;;;;;;;;;5037084;28;20026;-85
2022/05/22 01:53:06;;;;;;;5.70;2.40;;;;;;;;;;5019489;28;20057;-85
2022/05/22 01:55:32;;;;;;;3.15;2.25;;;;;;;;;;5018874;28;20121;-85
2022/05/22 01:57:58;;;;;;;4.68;2.42;;;;;;;;;;5036791;28;20075;-84
2022/05/22 02:00:26;;;;;;;3.83;2.53;;;;;;;;;;5036170;28;20391;-84
2022/05/22 02:02:54;;;;;;;5.82;2.55;;;;;;;;;;5018934;28;20100;-85
2022/05/22 02:05:20;;;;;;;7.35;3.65;;;;;;;;;;5018755;28;20020;-84
2022/05/22 02:10:31;;;;;;;3.10;2.17;;;;;;;;;;5017270;28;20045;-84
2022/05/22 02:12:57;;;;;;;2.58;1.90;;;;;;;;;;5022319;28;20033;-84
2022/05/22 02:15:23;;;;;;;4.25;2.33;;;;;;;;;;5016707;28;20045;-82
2022/05/22 02:17:49;;;;;;;10.73;2.75;;;;;;;;;;5035043;28;20116;-84
2022/05/22 02:20:16;;;;;;;5.85;2.20;;;;;;;;;;5035159;28;20060;-84
2022/05/22 02:22:43;;;;;;;3.65;2.00;;;;;;;;;;5035035;28;20025;-85
2022/05/22 02:25:10;;;;;;;4.25;2.30;;;;;;;;;;5017504;28;20121;-85
2022/05/22 02:27:36;;;;;;;4.40;2.42;;;;;;;;;;5035291;28;20018;-85
2022/05/22 02:30:03;;;;;;;4.35;2.60;;;;;;;;;;5041465;28;20449;-84
2022/05/22 02:32:29;;;;;;;4.43;2.35;;;;;;;;;;5026697;28;20029;-86
2022/05/22 02:34:55;;;;;;;2.60;1.90;;;;;;;;;;5017717;28;20519;-83
2022/05/22 02:37:21;;;;;;;3.63;2.55;;;;;;;;;;5019003;28;20172;-85
2022/05/22 02:39:48;;;;;;;5.20;2.60;;;;;;;;;;5018449;28;20479;-84
2022/05/22 02:42:14;;;;;;;3.95;2.28;;;;;;;;;;5036316;28;20025;-85
2022/05/22 02:44:40;;;;;;;5.75;2.40;;;;;;;;;;5036731;28;20036;-85
2022/05/22 02:47:06;;;;;;;10.02;2.88;;;;;;;;;;5017718;28;20096;-85
2022/05/22 02:49:33;;;;;;;7.65;2.83;;;;;;;;;;5017605;28;20025;-84
2022/05/22 02:52:00;;;;;;;6.35;3.38;;;;;;;;;;5034966;28;20036;-85
2022/05/22 02:54:26;;;;;;;5.53;2.60;;;;;;;;;;5034517;28;20021;-85
2022/05/22 02:56:52;;;;;;;4.18;2.70;;;;;;;;;;5034719;28;20391;-83
2022/05/22 02:59:18;;;;;;;4.53;2.85;;;;;;;;;;5017815;28;20484;-85
2022/05/22 03:01:44;;;;;;;4.72;3.00;;;;;;;;;;5017144;28;20025;-84
2022/05/22 03:04:10;;;;;;;6.28;2.72;;;;;;;;;;5017292;28;20237;-85
2022/05/22 03:06:39;;;;;;;5.47;2.60;;;;;;;;;;5017136;28;20045;-84
2022/05/22 03:09:06;;;;;;;4.15;2.38;;;;;;;;;;5016828;28;20025;-84
2022/05/22 03:11:31;;;;;;;5.93;2.83;;;;;;;;;;5034296;28;20021;-84
2022/05/22 03:13:58;;;;;;;5.30;2.60;;;;;;;;;;5035134;28;20491;-85
2022/05/22 03:16:24;;;;;;;6.63;2.50;;;;;;;;;;5034762;28;20040;-84
2022/05/22 03:18:50;;;;;;;3.42;2.70;;;;;;;;;;5034692;28;20391;-85
2022/05/22 03:21:16;;;;;;;6.38;3.20;;;;;;;;;;5016207;28;20056;-85
2022/05/22 03:23:42;;;;;;;4.95;2.80;;;;;;;;;;5033877;28;20026;-85
2022/05/22 03:26:09;;;;;;;5.32;2.55;;;;;;;;;;5016314;28;20369;-85
2022/05/22 03:28:35;;;;;;;5.57;2.80;;;;;;;;;;5016501;28;20028;-84
2022/05/22 03:31:01;;;;;;;6.28;2.97;;;;;;;;;;5034591;28;20472;-84
2022/05/22 03:33:27;;;;;;;3.45;2.65;;;;;;;;;;5017352;28;20028;-84
2022/05/22 03:35:53;;;;;;;3.63;2.78;;;;;;;;;;5035437;28;20541;-83
2022/05/22 03:38:19;;;;;;;5.25;2.22;;;;;;;;;;5035556;28;20025;-84
2022/05/22 03:40:46;;;;;;;8.38;2.30;;;;;;;;;;5035010;28;20029;-84
2022/05/22 03:43:16;;;;;;;3.70;2.35;;;;;;;;;;5034940;28;20116;-83
2022/05/22 03:45:42;;;;;;;6.35;3.17;;;;;;;;;;5016272;28;20130;-85
2022/05/22 03:48:08;;;;;;;8.85;2.72;;;;;;;;;;5034079;28;20123;-85
2022/05/22 03:50:35;;;;;;;5.18;2.55;;;;;;;;;;5033487;28;20017;-85
2022/05/22 03:53:01;;;;;;;5.82;2.25;;;;;;;;;;5033708;28;20087;-85
2022/05/22 03:55:27;;;;;;;3.15;2.20;;;;;;;;;;5033520;28;20029;-84
2022/05/22 03:57:53;;;;;;;4.15;2.40;;;;;;;;;;5033225;28;20541;-84
2022/05/22 04:00:21;;;;;;;7.13;2.55;;;;;;;;;;5014684;28;20037;-85
2022/05/22 04:02:47;;;;;;;5.00;2.78;;;;;;;;;;5016114;28;20025;-85
2022/05/22 04:05:13;;;;;;;3.92;2.35;;;;;;;;;;5017502;28;20021;-85
2022/05/22 04:07:41;;;;;;;8.13;2.28;;;;;;;;;;5016420;28;20233;-86
2022/05/22 04:10:08;;;;;;;4.25;2.40;;;;;;;;;;5016867;28;20482;-85
2022/05/22 04:12:34;;;;;;;3.00;2.22;;;;;;;;;;5016773;28;20029;-84
2022/05/22 04:15:00;;;;;;;2.97;2.47;;;;;;;;;;5035190;28;20035;-85
2022/05/22 04:17:26;;;;;;;3.47;2.08;;;;;;;;;;5034330;28;20040;-84
2022/05/22 04:19:52;;;;;;;6.50;2.40;;;;;;;;;;5015278;28;20279;-85
2022/05/22 04:22:18;;;;;;;5.78;2.28;;;;;;;;;;5033398;28;20076;-84
2022/05/22 04:27:28;;;;;;;4.10;2.15;;;;;;;;;;5032888;28;20116;-85
2022/05/22 04:29:54;;;;;;;2.92;2.13;;;;;;;;;;5032653;28;20053;-86
2022/05/22 04:32:20;;;;;;;3.78;2.15;;;;;;;;;;5032833;28;20514;-85
2022/05/22 04:34:46;;;;;;;2.83;1.98;;;;;;;;;;5014510;28;20033;-85
2022/05/22 04:37:12;;;;;;;4.68;2.25;;;;;;;;;;5032864;28;20124;-85
2022/05/22 04:39:38;;;;;;;5.40;2.13;;;;;;;;;;5015192;28;20056;-85
2022/05/22 04:42:04;;;;;;;2.85;2.08;;;;;;;;;;5015002;28;20022;-85
2022/05/22 04:44:31;;;;;;;3.22;1.92;;;;;;;;;;5014891;28;20082;-85
2022/05/22 04:46:59;;;;;;;5.60;2.03;;;;;;;;;;5032332;28;20029;-85
2022/05/22 04:49:25;;;;;;;3.88;2.63;;;;;;;;;;5032254;28;20436;-86
2022/05/22 04:51:51;;;;;;;4.70;2.25;;;;;;;;;;5032081;28;20033;-85
2022/05/22 04:54:17;;;;;;;5.85;2.50;;;;;;;;;;5032456;28;20029;-86
2022/05/22 04:56:43;;;;;;;2.30;2.10;;;;;;;;;;5014412;28;20127;-86
2022/05/22 04:59:09;;;;;;;3.42;2.05;;;;;;;;;;5032367;28;20085;-86
2022/05/22 05:01:35;;;;;;;3.90;2.10;;;;;;;;;;5031912;28;20029;-86
2022/05/22 05:04:01;;;;;;;4.93;2.53;;;;;;;;;;5031999;28;20434;-86
2022/05/22 05:06:31;;;;;;;3.38;2.17;;;;;;;;;;5029208;28;20031;-86
2022/05/22 05:08:57;;;;;;;3.28;2.33;;;;;;;;;;5013881;28;20028;-85
2022/05/22 05:11:23;;;;;;;5.75;2.53;;;;;;;;;;5012802;28;20498;-86
2022/05/22 05:13:49;;;;;;;5.70;2.40;;;;;;;;;;5032352;28;20017;-86
2022/05/22 05:16:15;;;;;;;3.95;2.75;;;;;;;;;;5013518;28;20025;-84
2022/05/22 05:18:41;;;;;;;3.35;2.00;;;;;;;;;;5031857;28;20025;-85
2022/05/22 05:21:09;;;;;;;5.57;2.40;;;;;;;;;;5013850;28;20026;-84
2022/05/22 05:23:34;;;;;;;4.22;2.00;;;;;;;;;;5033090;28;20029;-86
2022/05/22 05:26:01;;;;;;;5.40;2.38;;;;;;;;;;5032134;28;20021;-86
2022/05/22 05:28:27;;;;;;;2.83;1.90;;;;;;;;;;5035575;28;20471;-86
2022/05/22 05:30:53;;;;;;;2.67;2.10;;;;;;;;;;5036638;28;20030;-86
2022/05/22 05:33:19;;;;;;;6.32;2.20;;;;;;;;;;5017940;28;20033;-85
2022/05/22 05:35:45;;;;;;;3.05;2.10;;;;;;;;;;5015676;28;20029;-86
2022/05/22 05:38:12;;;;;;;4.07;1.88;;;;;;;;;;5015831;28;20398;-84
2022/05/22 05:40:38;;;;;;;2.97;1.95;;;;;;;;;;5014581;28;20030;-86
2022/05/22 05:43:05;;;;;;;6.15;2.38;;;;;;;;;;5033123;28;20025;-85
2022/05/22 05:45:31;;;;;;;5.88;2.33;;;;;;;;;;5032283;28;20021;-85
2022/05/22 05:47:57;;;;;;;3.35;2.33;;;;;;;;;;5089110;23;20036;-88
2022/05/22 05:50:25;;;;;;;2.83;2.10;;;;;;;;;;5072522;28;20028;-89
2022/05/22 05:52:52;;;;;;;3.67;2.00;;;;;;;;;;5072469;28;20032;-87
2022/05/22 05:55:18;;;;;;;5.20;2.58;;;;;;;;;;5071952;28;20063;-88
2022/05/22 05:57:45;;;;;;;4.50;1.90;;;;;;;;;;5070820;28;20028;-89
2022/05/22 06:00:55;;;;;;;6.63;2.90;;;;;;;;;;5071369;28;20079;-88
2022/05/22 06:06:38;;;;;;;3.75;1.90;;;;;;;;;;5049202;28;20457;-88
2022/05/22 06:09:05;;;;;;;4.20;2.30;;;;;;;;;;5049655;28;20037;-87
2022/05/22 06:11:31;;;;;;;4.80;2.13;;;;;;;;;;5049905;28;20259;-87
2022/05/22 06:13:59;;;;;;;5.18;1.90;;;;;;;;;;5050256;28;20049;-86
2022/05/22 06:16:26;;;;;;;4.25;1.95;;;;;;;;;;5050468;28;20021;-87
2022/05/22 06:18:52;;;;;;;5.00;2.00;;;;;;;;;;5050336;28;20097;-87
2022/05/22 06:21:21;;;;;;;2.17;1.83;;;;;;;;;;5045729;28;20040;-88
2022/05/22 06:24:00;;;;;;;6.85;1.92;;;;;;;;;;5087192;28;20048;-87
2022/05/22 06:26:26;;;;;;;5.63;3.13;;;;;;;;;;5076550;28;20043;-87
2022/05/22 06:28:52;;;;;;;3.50;1.70;;;;;;;;;;5075431;28;20032;-87
2022/05/22 06:31:24;;;;;;;3.08;1.77;;;;;;;;;;5076863;28;20029;-88
2022/05/22 06:34:09;;;;;;;6.53;1.70;;;;;;;;;;5075599;28;20028;-86
2022/05/22 06:36:41;;;;;;;3.33;1.55;;;;;;;;;;5076943;28;20037;-88
2022/05/22 06:41:52;;;;;;;4.35;1.83;;;;;;;;;;5076952;28;20405;-86
2022/05/22 06:44:19;;;;;;;4.10;1.70;;;;;;;;;;5077631;28;20458;-87
2022/05/22 06:46:45;;;;;;;3.35;1.50;;;;;;;;;;5075110;28;20497;-86
2022/05/22 06:49:17;;;;;;;4.65;1.65;;;;;;;;;;5078652;28;20044;-88
2022/05/22 06:58:52;;;;;;;6.15;1.30;;;;;;;;;;5012241;28;20041;-85
2022/05/22 07:01:44;;;;;;;3.63;1.40;;;;;;;;;;5073765;28;20128;-87
2022/05/22 07:04:21;;;;;;;8.30;1.48;;;;;;;;;;5073599;28;20307;-86
2022/05/22 07:07:09;;;;;;;2.67;1.27;;;;;;;;;;5072195;28;20497;-87
2022/05/22 07:09:47;;;;;;;5.20;1.30;;;;;;;;;;5076151;28;20028;-89
2022/05/22 07:12:47;;;;;;;4.78;1.33;;;;;;;;;;5074330;28;20036;-88
2022/05/22 07:15:37;;;;;;;6.78;1.50;;;;;;;;;;5061094;28;20056;-87
2022/05/22 07:18:36;;;;;;;3.67;1.70;;;;;;;;;;5057228;28;20033;-87
2022/05/22 07:21:25;;;;;;;;;;;;;;;;;;;;;
2022/05/22 07:23:54;;;;;;;2.60;1.40;;;;;;;;;;5054214;28;20032;-86
2022/05/22 07:29:49;;;;;;;2.80;1.77;;;;;;;;;;5074941;28;20095;-87
2022/05/22 07:42:01;;;;;;;;;;;;;;;;;;;;;
2022/05/22 07:44:49;;;;;;;3.60;1.88;;;;;;;;;;5054727;28;20037;-89
2022/05/22 07:47:35;;;;;;;1.50;1.20;;;;;;;;;;5053734;28;20072;-86
2022/05/22 07:50:21;;;;;;;2.85;1.08;;;;;;;;;;5064893;28;20036;-86
2022/05/22 07:52:58;;;;;;;5.18;1.20;;;;;;;;;;5072226;28;20132;-86
2022/05/22 07:55:39;;;;;;;;;;;;;;;;;;;;;
2022/05/22 07:58:05;;;;;;;4.97;1.00;;;;;;;;;;5074553;28;20031;-89
2022/05/22 08:00:32;;;;;;;5.22;1.15;;;;;;;;;;5076183;28;20028;-88
2022/05/22 08:02:59;;;;;;;2.78;1.20;;;;;;;;;;5076535;28;20024;-87
2022/05/22 08:05:28;;;;;;;4.55;0.90;;;;;;;;;;5072815;28;20032;-86
2022/05/22 08:07:57;;;;;;;0.80;0.73;;;;;;;;;;5072451;28;20036;-87
2022/05/22 08:10:23;;;;;;;1.60;0.80;;;;;;;;;;5074293;28;20544;-87
2022/05/22 08:16:24;;;;;;;5.82;0.90;;;;;;;;;;5072346;28;20024;-87
2022/05/22 08:19:18;;;;;;;1.92;0.80;;;;;;;;;;5072280;28;20025;-87
2022/05/22 08:21:49;;;;;;;2.72;0.85;;;;;;;;;;5065801;28;20867;-86
2022/05/22 08:24:24;;;;;;;2.35;1.02;;;;;;;;;;5071426;28;20080;-86
2022/05/22 08:26:56;;;;;;;5.45;1.20;;;;;;;;;;5070926;28;20055;-86
2022/05/22 08:29:25;;;;;;;3.40;0.93;;;;;;;;;;5071698;28;20020;-86
2022/05/22 08:31:54;;;;;;;2.10;0.88;;;;;;;;;;5072874;28;20407;-85
2022/05/22 08:34:20;;;;;;;3.42;1.27;;;;;;;;;;5073504;28;20100;-84
2022/05/22 08:36:48;;;;;;;4.07;1.20;;;;;;;;;;5075376;28;20028;-86
2022/05/22 08:39:23;;;;;;;2.85;0.73;;;;;;;;;;5074738;28;20032;-87
2022/05/22 08:41:50;;;;;;;2.47;1.08;;;;;;;;;;5074001;28;20024;-86
2022/05/22 08:44:19;;;;;;;2.65;0.90;;;;;;;;;;5071912;28;20074;-86
2022/05/22 08:46:58;;;;;;;1.05;0.82;;;;;;;;;;5072427;28;20031;-86
2022/05/22 08:49:24;;;;;;;2.08;1.02;;;;;;;;;;5071998;28;20044;-86
2022/05/22 08:52:00;;;;;;;3.47;1.10;;;;;;;;;;5072955;28;20346;-86
2022/05/22 08:54:38;;;;;;;3.22;1.15;;;;;;;;;;5071919;28;20033;-87
2022/05/22 08:59:57;;;;;;;3.55;1.55;;;;;;;;;;5072479;28;20505;-87
2022/05/22 09:02:45;;;;;;;7.35;1.35;;;;;;;;;;5070740;28;20039;-87
2022/05/22 09:05:20;;;;;;;4.65;0.90;;;;;;;;;;5070627;28;20196;-88
2022/05/22 09:07:55;;;;;;;1.88;0.85;;;;;;;;;;5072673;28;20017;-87
2022/05/22 09:11:04;;;;;;;2.00;0.60;;;;;;;;;;5072668;28;20038;-87
2022/05/22 09:13:49;;;;;;;2.03;0.80;;;;;;;;;;5071735;28;20036;-87
2022/05/22 09:16:27;;;;;;;4.68;1.00;;;;;;;;;;5072604;28;20421;-87
2022/05/22 09:19:04;;;;;;;3.58;0.98;;;;;;;;;;5070373;28;20115;-89
2022/05/22 09:21:39;;;;;;;2.42;0.80;;;;;;;;;;5067219;28;20023;-88
2022/05/22 09:24:37;;;;;;;6.20;1.17;;;;;;;;;;5071879;28;20025;-88
2022/05/22 09:30:11;;;;;;;1.67;0.80;;;;;;;;;;5072315;28;20089;-87
2022/05/22 09:32:42;;;;;;;2.10;0.70;;;;;;;;;;5071715;28;20056;-86
2022/05/22 09:35:17;;;;;;;0.98;0.63;;;;;;;;;;5071412;28;20375;-87
2022/05/22 09:37:43;;;;;;;4.10;1.10;;;;;;;;;;5070438;28;20070;-86
2022/05/22 09:40:23;;;;;;;1.73;0.80;;;;;;;;;;5071290;28;20032;-86
2022/05/22 09:42:48;;;;;;;2.97;0.95;;;;;;;;;;5073471;28;20024;-86
2022/05/22 09:45:17;;;;;;;2.60;0.70;;;;;;;;;;5073260;28;20540;-86
2022/05/22 09:47:43;;;;;;;1.95;0.90;;;;;;;;;;5073806;28;20032;-86
2022/05/22 09:50:12;;;;;;;3.78;0.70;;;;;;;;;;5073017;28;20029;-87
2022/05/22 09:52:57;;;;;;;2.72;0.70;;;;;;;;;;5074547;28;20052;-86
2022/05/22 09:55:28;;;;;;;3.40;0.75;;;;;;;;;;5075902;28;20040;-87
2022/05/22 09:58:00;;;;;;;0.98;0.80;;;;;;;;;;5077937;28;20038;-86
2022/05/22 10:00:36;;;;;;;4.10;0.98;;;;;;;;;;5077757;28;20028;-87
2022/05/22 10:03:35;;;;;;;;;;;;;;;;;;;;;
2022/05/22 10:06:13;;;;;;;5.53;0.75;;;;;;;;;;5049872;28;20036;-86
2022/05/22 10:09:04;;;;;;;2.78;0.82;;;;;;;;;;5078399;28;20033;-88
2022/05/22 10:11:54;;;;;;;1.77;0.68;;;;;;;;;;5056247;28;20041;-86
2022/05/22 10:18:35;;;;;;;;;;;;;;;;;;;;;
2022/05/22 10:21:04;;;;;;;1.55;0.63;;;;;;;;;;5013540;28;20033;-87
2022/05/22 10:23:50;;;;;;;4.18;0.70;;;;;;;;;;4997232;28;20106;-86
2022/05/22 10:26:35;;;;;;;2.63;1.00;;;;;;;;;;5057553;28;20059;-87
2022/05/22 10:32:22;;;;;;;3.47;0.80;;;;;;;;;;5068451;28;20029;-85
2022/05/22 10:35:27;;;;;;;1.45;0.65;;;;;;;;;;5077117;28;20036;-86
2022/05/22 10:38:19;;;;;;;1.52;0.85;;;;;;;;;;5015374;28;20030;-86
2022/05/22 10:43:50;;;;;;;0.98;0.50;;;;;;;;;;5058534;28;20040;-87
2022/05/22 10:46:20;;;;;;;4.85;0.90;;;;;;;;;;5057407;28;20024;-89
2022/05/22 10:49:14;;;;;;;3.83;0.63;;;;;;;;;;5055588;28;20021;-85
2022/05/22 10:52:05;;;;;;;1.25;0.63;;;;;;;;;;5056767;28;20300;-88
2022/05/22 10:54:40;;;;;;;3.20;1.10;;;;;;;;;;5056743;28;20037;-87
2022/05/22 10:57:07;;;;;;;1.35;0.80;;;;;;;;;;5063931;28;20056;-87
2022/05/22 10:59:35;;;;;;;2.28;0.70;;;;;;;;;;5076028;28;20498;-87
2022/05/22 11:02:24;;;;;;;4.15;0.98;;;;;;;;;;5076955;28;20041;-87
2022/05/22 11:26:35;;;;;;;0.88;0.60;;;;;;;;;;5035922;28;20172;-85
2022/05/22 11:29:06;;;;;;;3.00;1.00;;;;;;;;;;5053983;28;20025;-86
2022/05/22 11:31:51;;;;;;;4.28;0.85;;;;;;;;;;5053616;28;20044;-88
2022/05/22 11:34:33;;;;;;;4.60;0.70;;;;;;;;;;5055206;28;20486;-87
2022/05/22 11:37:18;;;;;;;3.67;1.00;;;;;;;;;;5051882;28;20052;-88
2022/05/22 11:39:46;;;;;;;1.92;0.70;;;;;;;;;;5053603;28;20494;-86
2022/05/22 11:42:23;;;;;;;4.05;0.70;;;;;;;;;;5053773;28;20494;-86
2022/05/22 11:44:58;;;;;;;4.57;1.00;;;;;;;;;;5054316;28;20059;-85
2022/05/22 11:47:35;;;;;;;2.00;0.80;;;;;;;;;;5074761;23;20042;-85
2022/05/22 11:50:20;;;;;;;0.98;0.52;;;;;;;;;;5014686;28;20025;-85
2022/05/22 11:53:04;;;;;;;3.13;0.77;;;;;;;;;;5014379;28;20059;-85
2022/05/22 11:55:45;;;;;;;1.25;0.60;;;;;;;;;;5014181;28;20060;-86
2022/05/22 11:58:30;;;;;;;0.93;0.50;;;;;;;;;;5030095;28;20042;-85
2022/05/22 12:01:05;;;;;;;1.00;0.70;;;;;;;;;;5035311;28;20037;-86
2022/05/22 12:03:49;;;;;;;3.65;0.80;;;;;;;;;;5032584;28;20105;-86
2022/05/22 12:06:27;;;;;;;3.05;0.77;;;;;;;;;;5032041;28;20071;-85
2022/05/22 12:08:59;;;;;;;2.28;0.77;;;;;;;;;;5032212;28;20219;-86
2022/05/22 12:11:31;;;;;;;1.15;0.50;;;;;;;;;;5031523;28;20479;-86
2022/05/22 12:14:09;;;;;;;1.10;0.63;;;;;;;;;;5033107;28;20030;-85
2022/05/22 12:16:41;;;;;;;1.73;1.13;;;;;;;;;;5031613;28;20438;-86
2022/05/22 12:19:20;;;;;;;2.45;0.98;;;;;;;;;;5032569;28;20025;-85
2022/05/22 12:21:46;;;;;;;0.93;0.70;;;;;;;;;;5032355;28;20064;-85
2022/05/22 12:24:30;;;;;;;1.48;0.80;;;;;;;;;;5031227;28;20025;-86
2022/05/22 12:26:56;;;;;;;1.98;0.70;;;;;;;;;;5032485;28;20099;-85
2022/05/22 12:29:29;;;;;;;1.27;0.60;;;;;;;;;;5031535;28;20125;-85
2022/05/22 12:31:56;;;;;;;2.75;0.80;;;;;;;;;;5031275;28;20037;-85
2022/05/22 12:34:29;;;;;;;2.65;0.70;;;;;;;;;;5032625;28;20021;-85
2022/05/22 12:36:55;;;;;;;3.80;0.80;;;;;;;;;;5031028;28;20378;-86
2022/05/22 12:39:22;;;;;;;2.38;0.82;;;;;;;;;;5032703;28;20037;-86
2022/05/22 12:42:08;;;;;;;0.65;0.60;;;;;;;;;;5032450;28;20030;-86
2022/05/22 12:44:35;;;;;;;2.20;0.75;;;;;;;;;;5032235;28;20017;-85
2022/05/22 12:47:08;;;;;;;2.17;0.63;;;;;;;;;;5030655;28;20112;-86
2022/05/22 12:49:34;;;;;;;1.60;0.55;;;;;;;;;;5032504;28;20479;-86
2022/05/22 12:52:02;;;;;;;3.08;1.02;;;;;;;;;;5035249;28;20029;-86
2022/05/22 12:54:30;;;;;;;1.73;0.80;;;;;;;;;;5045595;28;20022;-86
2022/05/22 12:57:11;;;;;;;0.95;0.40;;;;;;;;;;5032389;28;20547;-86
2022/05/22 12:59:37;;;;;;;2.22;0.80;;;;;;;;;;5032232;28;20052;-85
2022/05/22 13:02:04;;;;;;;1.75;0.60;;;;;;;;;;5031892;28;20084;-86
2022/05/22 13:04:35;;;;;;;1.60;0.60;;;;;;;;;;5032088;28;20025;-86
2022/05/22 13:07:00;;;;;;;;;;;;;;;;;;5030812;28;20045;-86
2022/05/22 13:09:32;;;;;;;0.98;0.68;;;;;;;;;;5030133;28;20291;-86
2022/05/22 13:11:58;;;;;;;2.85;0.73;;;;;;;;;;5030766;28;20116;-85
2022/05/22 13:14:28;;;;;;;3.47;0.90;;;;;;;;;;5031815;28;20030;-86
2022/05/22 13:16:54;;;;;;;2.33;0.70;;;;;;;;;;5030382;28;20033;-86
2022/05/22 13:19:22;;;;;;;0.70;0.70;;;;;;;;;;5031759;28;20030;-86
2022/05/22 13:21:48;;;;;;;1.77;0.63;;;;;;;;;;5030062;28;20581;-86
2022/05/22 13:24:17;;;;;;;0.50;0.50;;;;;;;;;;5031601;28;20472;-86
2022/05/22 13:26:54;;;;;;;0.68;0.47;;;;;;;;;;5030101;28;20033;-86
2022/05/22 13:29:20;;;;;;;1.58;0.70;;;;;;;;;;5030521;28;20037;-86
2022/05/22 13:31:49;;;;;;;3.45;0.63;;;;;;;;;;5032141;28;20037;-85
2022/05/22 13:34:15;;;;;;;0.73;0.52;;;;;;;;;;5035619;28;20037;-86
2022/05/22 13:36:45;;;;;;;2.55;0.50;;;;;;;;;;5035560;28;20430;-86
2022/05/22 13:39:16;;;;;;;6.15;1.08;;;;;;;;;;5035511;28;20029;-86
2022/05/22 13:41:54;;;;;;;1.55;0.70;;;;;;;;;;5035731;28;20084;-86
2022/05/22 13:44:29;;;;;;;1.20;0.60;;;;;;;;;;5034394;28;20055;-86
2022/05/22 13:47:14;;;;;;;2.83;0.60;;;;;;;;;;5035327;28;20026;-86
2022/05/22 13:52:34;;;;;;;1.58;0.80;;;;;;;;;;5035342;28;20025;-86
2022/05/22 13:53:02;;;;;;;1.92;0.80;;;;;;;;;;5036627;28;20215;-85
2022/05/22 13:55:28;;;;;;;3.30;0.63;;;;;;;;;;5036679;28;20017;-85
2022/05/22 13:57:54;;;;;;;2.00;0.75;;;;;;;;;;5034991;28;20026;-85
2022/05/22 14:00:23;;;;;;;0.70;0.60;;;;;;;;;;5036124;28;20052;-86
2022/05/22 14:02:54;;;;;;;2.92;0.90;;;;;;;;;;5034885;28;20682;-86
2022/05/22 14:05:21;;;;;;;4.22;0.65;;;;;;;;;;5034691;28;20026;-86
2022/05/22 14:07:51;;;;;;;1.52;0.73;;;;;;;;;;5034003;28;20022;-86
2022/05/22 14:10:34;;;;;;;2.45;0.50;;;;;;;;;;5034674;28;20056;-86
2022/05/22 14:13:19;;;;;;;0.65;0.52;;;;;;;;;;5035127;28;20061;-86
2022/05/22 14:15:55;;;;;;;1.70;0.70;;;;;;;;;;5035553;28;20124;-86
2022/05/22 14:18:23;;;;;;;1.30;0.70;;;;;;;;;;5034114;28;20021;-85
2022/05/22 14:20:50;;;;;;;1.80;0.52;;;;;;;;;;5035197;28;20051;-86
2022/05/22 14:23:30;;;;;;;0.93;0.70;;;;;;;;;;5035571;28;20029;-86
2022/05/22 14:25:57;;;;;;;1.77;0.80;;;;;;;;;;5041042;28;20552;-85
2022/05/22 14:28:28;;;;;;;2.03;0.70;;;;;;;;;;5055886;28;20028;-85
2022/05/22 14:30:54;;;;;;;4.90;0.50;;;;;;;;;;5055311;28;20028;-85
2022/05/22 14:33:23;;;;;;;2.55;0.63;;;;;;;;;;5055254;28;20029;-86
2022/05/22 14:35:50;;;;;;;1.95;0.75;;;;;;;;;;5053277;28;20028;-85
2022/05/22 14:38:17;;;;;;;1.92;0.70;;;;;;;;;;5053571;28;20044;-86
2022/05/22 14:40:46;;;;;;;3.80;1.15;;;;;;;;;;5053165;28;20032;-86
2022/05/22 14:43:12;;;;;;;2.67;0.80;;;;;;;;;;5054595;28;20021;-85
2022/05/22 14:45:40;;;;;;;1.15;0.75;;;;;;;;;;5055411;28;20036;-84
2022/05/22 14:48:08;;;;;;;0.95;0.50;;;;;;;;;;5051298;28;20025;-85
2022/05/22 14:50:35;;;;;;;1.95;0.68;;;;;;;;;;5035055;28;20033;-85
2022/05/22 14:53:06;;;;;;;0.93;0.50;;;;;;;;;;5035211;28;20025;-86
2022/05/22 14:55:37;;;;;;;2.33;0.60;;;;;;;;;;5035065;28;20434;-86
2022/05/22 14:58:04;;;;;;;;;;;;;;;;;;5035178;28;20109;-86
2022/05/22 15:00:34;;;;;;;2.35;0.80;;;;;;;;;;5035029;28;19987;-86
2022/05/22 15:03:09;;;;;;;1.27;0.65;;;;;;;;;;5034286;28;20021;-86
2022/05/22 15:05:37;;;;;;;2.53;0.60;;;;;;;;;;5033579;28;20416;-86
2022/05/22 15:08:06;;;;;;;4.43;0.80;;;;;;;;;;5034694;28;20080;-85
2022/05/22 15:10:34;;;;;;;0.90;0.50;;;;;;;;;;5034789;28;20026;-86
2022/05/22 15:13:00;;;;;;;1.40;0.80;;;;;;;;;;5033275;28;20068;-85
2022/05/22 15:15:28;;;;;;;1.98;0.55;;;;;;;;;;5033152;28;20025;-85
2022/05/22 15:18:14;;;;;;;1.67;0.50;;;;;;;;;;5052251;28;20525;-85
2022/05/22 15:20:40;;;;;;;1.02;0.50;;;;;;;;;;5051056;28;20025;-86
2022/05/22 15:25:58;;;;;;;1.25;0.73;;;;;;;;;;5038547;28;20044;-86
2022/05/22 15:28:27;;;;;;;5.32;0.80;;;;;;;;;;5033633;28;20025;-86
2022/05/22 15:30:53;;;;;;;1.92;0.75;;;;;;;;;;5034018;28;20037;-86
2022/05/22 15:33:22;;;;;;;3.47;0.73;;;;;;;;;;5033878;28;20021;-85
2022/05/22 15:35:53;;;;;;;1.42;0.60;;;;;;;;;;5033835;28;20033;-86
2022/05/22 15:38:19;;;;;;;;;;;;;;;;;;5032905;28;20025;-86
2022/05/22 15:40:46;;;;;;;1.90;0.55;;;;;;;;;;5046709;28;20042;-86
2022/05/22 15:43:14;;;;;;;1.27;0.70;;;;;;;;;;5052032;28;20446;-86
2022/05/22 15:45:41;;;;;;;2.88;0.70;;;;;;;;;;5054155;28;20045;-85
2022/05/22 15:51:08;;;;;;;3.00;0.80;;;;;;;;;;5049856;28;20076;-86
2022/05/22 15:53:36;;;;;;;1.77;0.57;;;;;;;;;;5058267;28;20026;-87
2022/05/22 15:56:04;;;;;;;3.05;0.68;;;;;;;;;;5031285;28;20049;-90
2022/05/22 15:58:53;;;;;;;1.52;0.80;;;;;;;;;;4995191;28;20052;-87
2022/05/22 16:01:33;;;;;;;2.08;0.80;;;;;;;;;;5001788;28;20111;-88
2022/05/22 16:04:44;;;;;;;;;;;;;;;;;;;;;
2022/05/22 16:11:06;;;;;;;2.53;0.93;;;;;;;;;;4991668;28;20033;-88
2022/05/22 16:13:45;;;;;;;;;;;;;;;;;;;;;
2022/05/22 16:16:32;;;;;;;2.17;0.82;;;;;;;;;;5052194;28;20058;-88
2022/05/22 16:19:08;;;;;;;1.40;0.80;;;;;;;;;;5057081;22;20515;-89
2022/05/22 16:21:42;;;;;;;2.85;0.70;;;;;;;;;;5011426;28;20172;-89
2022/05/22 16:24:24;;;;;;;6.22;0.93;;;;;;;;;;5032751;28;20095;-89
2022/05/22 16:27:07;;;;;;;1.60;0.70;;;;;;;;;;5035401;28;20026;-88
2022/05/22 16:29:52;;;;;;;2.08;0.80;;;;;;;;;;5052850;28;20032;-88
2022/05/22 16:32:18;;;;;;;2.80;1.27;;;;;;;;;;5053113;28;20028;-88
2022/05/22 16:35:15;;;;;;;2.10;0.98;;;;;;;;;;5053030;28;20044;-88
2022/05/22 16:41:17;;;;;;;1.60;0.93;;;;;;;;;;4989235;28;20472;-85